Time;durP1;ratioP1;P1;durP2;ratioP2;P2;SDS_P1;SDS_P2;PMS_P1;PMS_P2;Temp;Humidity;BMP_temperature;BMP_pressure;BME280_temperature;BME280_humidity;BME280_pressure;Samples;Min_cycle;Max_cycle;Signal;HPM_P1;HPM_P2
2021/12/05 00:16:55;;;;;;;;;;;;;;;;;;5040733;28;20032;-83
2021/12/05 00:22:53;;;;;;;37.13;21.48;;;;;;;;;;5036372;28;20344;-81
2021/12/05 00:25:24;;;;;;;35.45;20.73;;;;;;;;;;5035022;28;20025;-83
2021/12/05 00:28:06;;;;;;;39.08;23.73;;;;;;;;;;5035107;28;20083;-82
2021/12/05 00:57:35;;;;;;;25.92;16.33;;;;;;;;;;5036423;28;20026;-86
2021/12/05 01:16:04;;;;;;;44.60;26.52;;;;;;;;;;5035936;28;20121;-84
2021/12/05 01:18:30;;;;;;;52.38;29.95;;;;;;;;;;5035382;28;20021;-83
2021/12/05 01:20:59;;;;;;;34.03;21.73;;;;;;;;;;5033990;28;20040;-84
2021/12/05 01:58:10;;;;;;;18.92;12.57;;;;;;;;;;5034756;28;20507;-84
2021/12/05 02:09:18;;;;;;;20.05;12.25;;;;;;;;;;5034843;28;20437;-81
2021/12/05 02:34:11;;;;;;;23.08;15.23;;;;;;;;;;5034370;28;20099;-83
2021/12/05 02:39:50;;;;;;;23.85;14.20;;;;;;;;;;5028345;28;20127;-82
2021/12/05 02:42:26;;;;;;;24.48;15.65;;;;;;;;;;5034214;28;20376;-83
2021/12/05 02:44:53;;;;;;;21.67;15.05;;;;;;;;;;5034028;28;20033;-83
2021/12/05 02:47:21;;;;;;;20.52;14.20;;;;;;;;;;5032672;28;20029;-84
2021/12/05 02:49:49;;;;;;;32.22;19.50;;;;;;;;;;5034183;28;20025;-83
2021/12/05 02:52:22;;;;;;;34.95;21.63;;;;;;;;;;5033734;28;20400;-83
2021/12/05 02:54:51;;;;;;;28.58;17.92;;;;;;;;;;5032535;28;20032;-84
2021/12/05 02:57:25;;;;;;;41.92;24.85;;;;;;;;;;5032505;28;20025;-82
2021/12/05 02:59:56;;;;;;;44.30;24.85;;;;;;;;;;5033718;28;20036;-82
2021/12/05 03:02:27;;;;;;;55.40;29.23;;;;;;;;;;5032331;28;20086;-85
2021/12/05 03:04:56;;;;;;;43.78;28.15;;;;;;;;;;5032505;28;20026;-85
2021/12/05 03:07:27;;;;;;;38.42;22.02;;;;;;;;;;5033610;28;20029;-85
2021/12/05 03:09:54;;;;;;;41.65;22.50;;;;;;;;;;5033590;28;20026;-86
2021/12/05 03:12:20;;;;;;;31.48;18.52;;;;;;;;;;5033755;28;20087;-85
2021/12/05 03:14:47;;;;;;;36.80;21.55;;;;;;;;;;5033641;28;20026;-85
2021/12/05 03:17:14;;;;;;;36.90;21.20;;;;;;;;;;5033391;28;20025;-83
2021/12/05 03:19:40;;;;;;;37.03;19.80;;;;;;;;;;5035250;28;20036;-82
2021/12/05 03:22:06;;;;;;;27.88;17.75;;;;;;;;;;5032202;28;20029;-85
2021/12/05 03:24:33;;;;;;;30.90;21.50;;;;;;;;;;5031970;28;20029;-83
2021/12/05 03:26:59;;;;;;;26.70;16.63;;;;;;;;;;5033434;28;20144;-83
2021/12/05 03:29:25;;;;;;;22.70;14.25;;;;;;;;;;5033239;28;20021;-83
2021/12/05 03:31:52;;;;;;;23.23;15.23;;;;;;;;;;5033372;28;20041;-83
2021/12/05 03:34:19;;;;;;;23.40;14.57;;;;;;;;;;5033227;28;20064;-82
2021/12/05 03:36:48;;;;;;;20.10;13.43;;;;;;;;;;5033186;28;20093;-86
2021/12/05 03:39:14;;;;;;;24.33;17.13;;;;;;;;;;5033112;28;20050;-86
2021/12/05 03:41:41;;;;;;;26.17;15.48;;;;;;;;;;5033182;28;20067;-82
2021/12/05 03:44:09;;;;;;;20.75;13.27;;;;;;;;;;5031919;28;20021;-85
2021/12/05 03:46:35;;;;;;;22.15;14.38;;;;;;;;;;5033383;28;20438;-85
2021/12/05 03:49:04;;;;;;;20.58;13.73;;;;;;;;;;5033226;28;20072;-81
2021/12/05 03:51:32;;;;;;;22.60;13.68;;;;;;;;;;5032873;28;20461;-84
2021/12/05 03:53:58;;;;;;;19.85;13.13;;;;;;;;;;5033121;28;20178;-85
2021/12/05 03:56:25;;;;;;;24.95;14.65;;;;;;;;;;5033007;28;20412;-84
2021/12/05 03:58:52;;;;;;;22.30;13.80;;;;;;;;;;5033281;28;20040;-83
2021/12/05 04:01:19;;;;;;;22.00;15.38;;;;;;;;;;5032822;28;20520;-83
2021/12/05 04:03:46;;;;;;;24.85;14.88;;;;;;;;;;5033085;28;20061;-82
2021/12/05 04:06:14;;;;;;;20.15;12.98;;;;;;;;;;5033171;28;20578;-82
2021/12/05 04:08:41;;;;;;;35.28;20.17;;;;;;;;;;5032977;28;20033;-84
2021/12/05 04:11:11;;;;;;;28.90;17.90;;;;;;;;;;5032978;28;20056;-85
2021/12/05 04:13:37;;;;;;;28.50;17.25;;;;;;;;;;5033017;28;20075;-85
2021/12/05 04:16:04;;;;;;;20.95;13.85;;;;;;;;;;5033040;28;20026;-85
2021/12/05 04:18:31;;;;;;;21.25;13.77;;;;;;;;;;5033111;28;20061;-85
2021/12/05 04:20:57;;;;;;;20.85;13.60;;;;;;;;;;5032986;28;20060;-82
2021/12/05 04:23:23;;;;;;;22.25;13.88;;;;;;;;;;5032980;28;20048;-85
2021/12/05 04:25:51;;;;;;;22.58;13.35;;;;;;;;;;5032050;28;20030;-85
2021/12/05 04:28:18;;;;;;;21.55;13.23;;;;;;;;;;5031352;28;20030;-86
2021/12/05 04:30:44;;;;;;;22.42;13.88;;;;;;;;;;5033886;28;20530;-85
2021/12/05 04:33:11;;;;;;;20.73;14.48;;;;;;;;;;5036445;28;20029;-85
2021/12/05 04:35:37;;;;;;;53.78;24.83;;;;;;;;;;5035219;28;20026;-82
2021/12/05 04:38:03;;;;;;;26.38;16.52;;;;;;;;;;5036190;28;20032;-84
2021/12/05 04:40:29;;;;;;;24.80;15.65;;;;;;;;;;5035034;28;20025;-84
2021/12/05 04:42:56;;;;;;;23.73;14.60;;;;;;;;;;5036407;28;20030;-82
2021/12/05 04:45:25;;;;;;;29.42;16.75;;;;;;;;;;5036224;28;20029;-85
2021/12/05 04:47:52;;;;;;;30.67;16.67;;;;;;;;;;5035076;28;20087;-83
2021/12/05 04:50:19;;;;;;;27.85;16.60;;;;;;;;;;5036156;28;20091;-85
2021/12/05 04:52:46;;;;;;;23.17;16.08;;;;;;;;;;5035940;28;20458;-82
2021/12/05 04:55:13;;;;;;;53.80;31.10;;;;;;;;;;5034703;28;20495;-85
2021/12/05 04:57:40;;;;;;;28.77;18.17;;;;;;;;;;5035763;28;20030;-82
2021/12/05 05:00:12;;;;;;;51.83;33.90;;;;;;;;;;5036467;28;20483;-82
2021/12/05 05:02:39;;;;;;;28.10;18.65;;;;;;;;;;5038563;28;20504;-82
2021/12/05 05:05:05;;;;;;;28.75;19.83;;;;;;;;;;5035875;28;20021;-83
2021/12/05 05:07:31;;;;;;;25.63;15.32;;;;;;;;;;5034572;28;20112;-86
2021/12/05 05:10:05;;;;;;;30.27;18.48;;;;;;;;;;5035753;28;20500;-82
2021/12/05 05:12:31;;;;;;;29.67;16.90;;;;;;;;;;5034356;28;20037;-83
2021/12/05 05:14:57;;;;;;;27.80;16.48;;;;;;;;;;5035728;28;20064;-87
2021/12/05 05:17:24;;;;;;;26.38;15.70;;;;;;;;;;5035330;28;20450;-85
2021/12/05 05:19:55;;;;;;;28.92;16.70;;;;;;;;;;5035604;28;20100;-86
2021/12/05 05:22:41;;;;;;;24.17;15.73;;;;;;;;;;5035535;28;20117;-86
2021/12/05 05:52:12;;;;;;;63.65;37.63;;;;;;;;;;5034891;28;20045;-85
2021/12/05 05:54:38;;;;;;;39.47;22.75;;;;;;;;;;5035141;28;20040;-83
2021/12/05 06:00:00;;;;;;;;;;;;;;;;;;5035370;28;20091;-83
2021/12/05 06:05:11;;;;;;;29.65;17.65;;;;;;;;;;5034864;28;20535;-82
2021/12/05 06:10:22;;;;;;;;;;;;;;;;;;5035133;28;20041;-84
2021/12/05 06:12:50;;;;;;;26.85;16.52;;;;;;;;;;5034414;28;19921;-85
2021/12/05 06:15:17;;;;;;;42.17;24.90;;;;;;;;;;5034598;28;20064;-82
2021/12/05 06:17:44;;;;;;;38.30;24.92;;;;;;;;;;5033295;28;20021;-83
2021/12/05 06:20:11;;;;;;;28.65;19.23;;;;;;;;;;5034334;28;20032;-84
2021/12/05 06:22:37;;;;;;;29.45;18.70;;;;;;;;;;5034609;28;20026;-84
2021/12/05 06:25:05;;;;;;;29.73;17.85;;;;;;;;;;5034235;28;20025;-83
2021/12/05 06:27:31;;;;;;;30.75;18.50;;;;;;;;;;5034471;28;20026;-82
2021/12/05 06:38:40;;;;;;;32.17;20.33;;;;;;;;;;5034548;28;20064;-87
2021/12/05 06:41:18;;;;;;;32.88;20.13;;;;;;;;;;5032983;28;20029;-81
2021/12/05 06:46:29;;;;;;;36.85;25.30;;;;;;;;;;5036708;28;20030;-84
2021/12/05 06:48:55;;;;;;;50.15;28.55;;;;;;;;;;5033491;28;20416;-86
2021/12/05 06:51:23;;;;;;;95.13;42.90;;;;;;;;;;5033894;28;20026;-82
2021/12/05 06:53:50;;;;;;;78.53;36.78;;;;;;;;;;5033437;28;20032;-85
2021/12/05 06:56:17;;;;;;;48.88;27.58;;;;;;;;;;5032844;28;20056;-86
2021/12/05 06:58:43;;;;;;;37.80;23.05;;;;;;;;;;5032807;28;20025;-84
2021/12/05 07:01:10;;;;;;;34.50;24.08;;;;;;;;;;5033748;28;20504;-85
2021/12/05 07:03:39;;;;;;;34.17;23.63;;;;;;;;;;5032444;28;20036;-83
2021/12/05 07:06:09;;;;;;;129.57;73.03;;;;;;;;;;5033166;28;20455;-83
2021/12/05 07:08:38;;;;;;;45.25;28.35;;;;;;;;;;5033343;28;20125;-87
2021/12/05 07:11:21;;;;;;;33.40;20.85;;;;;;;;;;5034194;28;20060;-83
2021/12/05 07:14:12;;;;;;;31.83;18.10;;;;;;;;;;5033345;28;20053;-83
2021/12/05 07:17:05;;;;;;;33.40;21.00;;;;;;;;;;5034333;28;20083;-85
2021/12/05 07:19:54;;;;;;;37.25;19.92;;;;;;;;;;5034183;28;20404;-83
2021/12/05 07:22:19;;;;;;;32.53;19.83;;;;;;;;;;5034022;28;20039;-85
2021/12/05 07:24:53;;;;;;;332.60;197.80;;;;;;;;;;5032914;28;20044;-86
2021/12/05 07:44:02;;;;;;;34.20;21.92;;;;;;;;;;5033414;28;20029;-84
2021/12/05 07:46:29;;;;;;;36.97;23.58;;;;;;;;;;5031861;28;20026;-84
2021/12/05 07:48:58;;;;;;;42.70;28.20;;;;;;;;;;5031729;28;20025;-83
2021/12/05 07:51:29;;;;;;;38.38;25.00;;;;;;;;;;5015873;28;20034;-84
2021/12/05 08:15:46;;;;;;;52.10;28.50;;;;;;;;;;5037608;28;20043;-88
2021/12/05 08:18:13;;;;;;;39.85;23.50;;;;;;;;;;5036285;28;20091;-86
2021/12/05 08:20:41;;;;;;;44.47;25.23;;;;;;;;;;5037014;28;20132;-88
2021/12/05 08:23:08;;;;;;;33.85;19.08;;;;;;;;;;5037008;28;20061;-85
2021/12/05 08:25:36;;;;;;;42.38;22.17;;;;;;;;;;5036043;28;20025;-83
2021/12/05 08:30:59;;;;;;;30.40;17.73;;;;;;;;;;5036792;28;20033;-84
2021/12/05 08:33:44;;;;;;;33.05;15.88;;;;;;;;;;5036792;28;20061;-87
2021/12/05 10:03:34;;;;;;;188.90;110.85;;;;;;;;;;5035399;28;20099;-86
2021/12/05 10:08:49;;;;;;;44.10;27.65;;;;;;;;;;5037968;28;20093;-80
2021/12/05 10:11:28;;;;;;;35.88;20.02;;;;;;;;;;5039423;28;20029;-82
2021/12/05 10:14:16;;;;;;;37.50;20.00;;;;;;;;;;5035040;28;20032;-87
2021/12/05 10:17:26;;;;;;;34.13;19.35;;;;;;;;;;5035504;28;20025;-86
2021/12/05 10:34:02;;;;;;;33.72;17.90;;;;;;;;;;5040412;28;20041;-87
2021/12/05 10:36:28;;;;;;;32.55;16.75;;;;;;;;;;5040157;28;20377;-87
2021/12/05 10:39:00;;;;;;;30.10;17.35;;;;;;;;;;5035144;28;20045;-83
2021/12/05 10:43:59;;;;;;;37.13;19.67;;;;;;;;;;5028859;28;20022;-88
2021/12/05 10:46:26;;;;;;;41.47;20.83;;;;;;;;;;5017942;28;20033;-91
2021/12/05 10:49:00;;;;;;;38.97;20.60;;;;;;;;;;5021768;28;20030;-83
2021/12/05 10:51:28;;;;;;;47.13;23.05;;;;;;;;;;5020125;28;20026;-88
2021/12/05 10:53:57;;;;;;;40.95;23.92;;;;;;;;;;5021941;28;20034;-90
2021/12/05 10:56:37;;;;;;;173.15;100.82;;;;;;;;;;5019302;28;20112;-87
2021/12/05 10:59:07;;;;;;;94.57;58.17;;;;;;;;;;5018418;28;20112;-83
2021/12/05 11:01:52;;;;;;;48.90;27.58;;;;;;;;;;5021167;28;20022;-85
2021/12/05 11:04:20;;;;;;;41.92;21.73;;;;;;;;;;5019371;28;20033;-85
2021/12/05 11:06:52;;;;;;;40.63;22.35;;;;;;;;;;5020579;28;20465;-85
2021/12/05 11:09:21;;;;;;;44.33;24.92;;;;;;;;;;5018899;28;20030;-85
2021/12/05 11:11:48;;;;;;;43.38;23.80;;;;;;;;;;5018838;28;20037;-83
2021/12/05 11:14:17;;;;;;;33.55;19.63;;;;;;;;;;5017446;28;20025;-82
2021/12/05 11:16:45;;;;;;;42.15;22.35;;;;;;;;;;5018612;28;20030;-89
2021/12/05 11:19:15;;;;;;;41.88;24.75;;;;;;;;;;5017152;28;20057;-89
2021/12/05 11:21:47;;;;;;;55.70;36.15;;;;;;;;;;5016508;28;20022;-87
2021/12/05 11:24:14;;;;;;;51.33;31.40;;;;;;;;;;5017087;28;20384;-88
2021/12/05 11:26:41;;;;;;;27.00;16.95;;;;;;;;;;5018696;28;20045;-89
2021/12/05 11:29:08;;;;;;;27.00;15.48;;;;;;;;;;5019186;28;20440;-86
2021/12/05 11:31:35;;;;;;;62.38;36.58;;;;;;;;;;5016627;28;20050;-86
2021/12/05 11:34:01;;;;;;;37.20;21.77;;;;;;;;;;5016273;28;20438;-82
2021/12/05 11:36:29;;;;;;;79.13;48.20;;;;;;;;;;5017002;28;20473;-89
2021/12/05 11:38:55;;;;;;;69.13;42.90;;;;;;;;;;5017548;28;20060;-93
2021/12/05 11:41:23;;;;;;;68.00;40.47;;;;;;;;;;5023698;28;20029;-88
2021/12/05 11:43:54;;;;;;;61.22;37.75;;;;;;;;;;5020327;28;20026;-86
2021/12/05 11:46:28;;;;;;;55.75;29.23;;;;;;;;;;5019411;28;20384;-85
2021/12/05 11:49:18;;;;;;;53.07;29.47;;;;;;;;;;5020476;28;20029;-82
2021/12/05 11:51:56;;;;;;;49.17;25.52;;;;;;;;;;5024338;28;20379;-86
2021/12/05 11:54:25;;;;;;;46.67;26.30;;;;;;;;;;5022308;28;20037;-84
2021/12/05 11:57:03;;;;;;;47.80;28.08;;;;;;;;;;5020531;28;20030;-83
2021/12/05 11:59:38;;;;;;;43.33;24.90;;;;;;;;;;5019683;28;20072;-87
2021/12/05 12:02:15;;;;;;;58.05;33.28;;;;;;;;;;5019522;28;20427;-86
2021/12/05 12:05:00;;;;;;;52.13;31.38;;;;;;;;;;5019221;28;20037;-90
2021/12/05 12:07:26;;;;;;;;;;;;;;;;;;5019894;28;20064;-85
2021/12/05 12:09:54;;;;;;;50.35;29.75;;;;;;;;;;5020462;28;19905;-86
2021/12/05 12:12:20;;;;;;;41.00;26.38;;;;;;;;;;5022440;28;20042;-91
2021/12/05 12:14:47;;;;;;;91.03;49.78;;;;;;;;;;5021157;28;20037;-89
2021/12/05 12:17:16;;;;;;;45.75;26.40;;;;;;;;;;5021436;28;20030;-84
2021/12/05 12:20:01;;;;;;;37.25;21.85;;;;;;;;;;5020773;28;20113;-82
2021/12/05 12:22:28;;;;;;;46.42;28.52;;;;;;;;;;5018293;28;20025;-91
2021/12/05 12:24:56;;;;;;;52.38;32.33;;;;;;;;;;5016970;28;20113;-91
2021/12/05 12:27:22;;;;;;;35.40;23.30;;;;;;;;;;5018933;28;20113;-87
2021/12/05 12:29:50;;;;;;;36.15;22.52;;;;;;;;;;5018840;28;20104;-84
2021/12/05 12:32:18;;;;;;;35.78;21.02;;;;;;;;;;5020524;28;20038;-85
2021/12/05 12:34:44;;;;;;;58.83;34.85;;;;;;;;;;5018920;28;20088;-84
2021/12/05 12:37:12;;;;;;;93.28;57.97;;;;;;;;;;5020777;28;20026;-88
2021/12/05 12:39:40;;;;;;;40.42;24.55;;;;;;;;;;5019532;28;20057;-85
2021/12/05 12:42:28;;;;;;;40.63;26.42;;;;;;;;;;5020223;28;20026;-87
2021/12/05 12:45:13;;;;;;;34.95;21.25;;;;;;;;;;5020620;28;20535;-85
2021/12/05 12:47:39;;;;;;;;;;;;;;;;;;5020637;28;20030;-83
2021/12/05 12:50:24;;;;;;;47.80;28.92;;;;;;;;;;5018992;28;19933;-83
2021/12/05 12:52:58;;;;;;;41.47;25.35;;;;;;;;;;5016043;28;20041;-88
2021/12/05 12:55:27;;;;;;;39.43;22.43;;;;;;;;;;5017106;28;20076;-88
2021/12/05 12:57:53;;;;;;;40.35;21.63;;;;;;;;;;5018028;28;20064;-84
2021/12/05 13:00:23;;;;;;;36.90;20.45;;;;;;;;;;5017450;28;20034;-86
2021/12/05 13:10:58;;;;;;;41.83;24.50;;;;;;;;;;5017591;28;20113;-87
2021/12/05 13:13:27;;;;;;;37.10;23.02;;;;;;;;;;5017001;28;20113;-88
2021/12/05 13:15:57;;;;;;;40.22;22.70;;;;;;;;;;5017338;28;20538;-83
2021/12/05 13:18:42;;;;;;;52.22;28.52;;;;;;;;;;5017299;28;20040;-84
2021/12/05 13:21:16;;;;;;;35.25;22.23;;;;;;;;;;5017425;28;20057;-85
2021/12/05 13:23:52;;;;;;;40.90;23.58;;;;;;;;;;5017311;28;20126;-89
2021/12/05 13:26:23;;;;;;;32.17;18.67;;;;;;;;;;5016435;28;20100;-85
2021/12/05 13:28:57;;;;;;;35.90;21.35;;;;;;;;;;5016593;28;20029;-84
2021/12/05 13:31:43;;;;;;;40.53;23.30;;;;;;;;;;5016127;28;20033;-87
2021/12/05 13:34:30;;;;;;;33.83;20.77;;;;;;;;;;5018106;28;20432;-86
2021/12/05 13:37:19;;;;;;;39.63;20.00;;;;;;;;;;5017329;28;20034;-83
2021/12/05 13:40:04;;;;;;;31.60;19.35;;;;;;;;;;5015092;28;20053;-91
2021/12/05 13:42:39;;;;;;;34.97;20.58;;;;;;;;;;5015341;28;20026;-89
2021/12/05 13:45:07;;;;;;;45.50;26.08;;;;;;;;;;5016003;28;20049;-84
2021/12/05 13:47:39;;;;;;;34.72;23.20;;;;;;;;;;5015599;28;20083;-84
2021/12/05 13:53:08;;;;;;;61.40;33.50;;;;;;;;;;5016460;28;20096;-83
2021/12/05 13:55:43;;;;;;;82.32;45.72;;;;;;;;;;5017025;28;20034;-88
2021/12/05 13:58:20;;;;;;;111.43;66.25;;;;;;;;;;5015038;28;20026;-83
2021/12/05 14:00:51;;;;;;;62.25;38.92;;;;;;;;;;5014725;28;20060;-88
2021/12/05 14:03:37;;;;;;;62.35;37.28;;;;;;;;;;5015662;28;20057;-82
2021/12/05 14:06:03;;;;;;;75.78;39.05;;;;;;;;;;5016777;28;20049;-89
2021/12/05 14:08:30;;;;;;;72.43;42.33;;;;;;;;;;5015632;28;20021;-85
2021/12/05 14:10:56;;;;;;;44.55;25.50;;;;;;;;;;5015799;28;20079;-82
2021/12/05 14:13:22;;;;;;;34.90;21.30;;;;;;;;;;5015469;28;20041;-83
2021/12/05 14:15:57;;;;;;;36.33;22.60;;;;;;;;;;5015675;28;20373;-81
2021/12/05 14:18:24;;;;;;;36.60;22.58;;;;;;;;;;5015499;28;20105;-82
2021/12/05 14:20:50;;;;;;;38.03;22.80;;;;;;;;;;5014224;28;20393;-86
2021/12/05 14:23:35;;;;;;;39.53;24.67;;;;;;;;;;5014397;28;20022;-80
2021/12/05 14:26:13;;;;;;;55.45;34.45;;;;;;;;;;5014496;28;20029;-87
2021/12/05 14:28:39;;;;;;;41.08;26.52;;;;;;;;;;5015990;28;20030;-89
2021/12/05 14:31:05;;;;;;;37.53;24.15;;;;;;;;;;5016178;28;20029;-87
2021/12/05 14:33:45;;;;;;;36.92;22.30;;;;;;;;;;5015139;28;20042;-83
2021/12/05 14:36:22;;;;;;;35.55;22.27;;;;;;;;;;5013808;28;20079;-83
2021/12/05 14:39:04;;;;;;;39.47;23.85;;;;;;;;;;5014853;28;20072;-83
2021/12/05 14:41:31;;;;;;;36.60;24.23;;;;;;;;;;5014809;28;20025;-81
2021/12/05 14:43:58;;;;;;;39.85;23.98;;;;;;;;;;5015045;28;20025;-83
2021/12/05 14:46:24;;;;;;;43.00;25.45;;;;;;;;;;5014749;28;20053;-83
2021/12/05 14:48:58;;;;;;;38.35;24.42;;;;;;;;;;5013637;28;20053;-84
2021/12/05 14:51:38;;;;;;;39.90;24.48;;;;;;;;;;5014556;28;20061;-80
2021/12/05 14:54:05;;;;;;;71.72;43.67;;;;;;;;;;5014824;28;20029;-84
2021/12/05 14:56:34;;;;;;;58.90;39.22;;;;;;;;;;5013463;28;20469;-84
2021/12/05 14:59:05;;;;;;;66.90;47.05;;;;;;;;;;5014652;28;20108;-86
2021/12/05 15:01:31;;;;;;;128.02;81.13;;;;;;;;;;5014643;28;20096;-83
2021/12/05 15:03:59;;;;;;;107.90;70.93;;;;;;;;;;5014240;28;20149;-86
2021/12/05 15:06:44;;;;;;;72.57;47.92;;;;;;;;;;5014485;28;20029;-86
2021/12/05 15:09:29;;;;;;;67.80;43.75;;;;;;;;;;5014464;28;20022;-82
2021/12/05 15:11:57;;;;;;;63.08;42.17;;;;;;;;;;5014557;28;20037;-86
2021/12/05 15:14:24;;;;;;;66.65;40.80;;;;;;;;;;5024405;28;20052;-85
2021/12/05 15:17:01;;;;;;;78.32;47.13;;;;;;;;;;5015952;28;20026;-84
2021/12/05 15:19:28;;;;;;;80.03;51.42;;;;;;;;;;5013331;28;20033;-86
2021/12/05 15:21:54;;;;;;;176.48;97.80;;;;;;;;;;5014372;28;20045;-81
2021/12/05 15:24:25;;;;;;;300.63;179.70;;;;;;;;;;5012991;28;20022;-87
2021/12/05 15:26:52;;;;;;;195.48;120.30;;;;;;;;;;5012966;28;20388;-87
2021/12/05 15:29:18;;;;;;;123.20;77.30;;;;;;;;;;5014173;28;20045;-84
2021/12/05 15:31:45;;;;;;;130.18;83.72;;;;;;;;;;5013883;28;20030;-86
2021/12/05 15:34:29;;;;;;;137.05;85.00;;;;;;;;;;5014199;28;20445;-83
2021/12/05 15:36:56;;;;;;;108.78;67.10;;;;;;;;;;5014261;28;20018;-80
2021/12/05 15:39:24;;;;;;;103.30;63.70;;;;;;;;;;5012847;28;20052;-83
2021/12/05 15:41:52;;;;;;;88.00;54.55;;;;;;;;;;5014131;28;20034;-90
2021/12/05 15:44:39;;;;;;;59.33;39.80;;;;;;;;;;5012962;28;20117;-87
2021/12/05 15:47:26;;;;;;;59.30;39.83;;;;;;;;;;5014051;28;20113;-82
2021/12/05 15:49:55;;;;;;;50.38;32.75;;;;;;;;;;5014249;28;20053;-82
2021/12/05 15:52:23;;;;;;;53.08;37.45;;;;;;;;;;5014072;28;20091;-86
2021/12/05 15:54:50;;;;;;;63.45;39.83;;;;;;;;;;5014396;28;20473;-84
2021/12/05 15:57:26;;;;;;;64.65;40.70;;;;;;;;;;5013982;28;20030;-84
2021/12/05 15:59:53;;;;;;;92.93;59.30;;;;;;;;;;5013913;28;20054;-84
2021/12/05 16:02:20;;;;;;;140.23;99.85;;;;;;;;;;5012842;28;20030;-85
2021/12/05 16:04:46;;;;;;;101.43;67.30;;;;;;;;;;5014031;28;20036;-84
2021/12/05 16:07:13;;;;;;;96.97;62.88;;;;;;;;;;5012861;28;20030;-83
2021/12/05 16:09:40;;;;;;;106.95;77.07;;;;;;;;;;5012982;28;20125;-87
2021/12/05 16:12:07;;;;;;;100.63;66.75;;;;;;;;;;5013919;28;20026;-87
2021/12/05 16:14:35;;;;;;;111.60;72.68;;;;;;;;;;5014089;28;20025;-87
2021/12/05 16:17:03;;;;;;;106.95;67.13;;;;;;;;;;5012829;28;20030;-82
2021/12/05 16:19:32;;;;;;;107.57;72.95;;;;;;;;;;5013163;28;20099;-83
2021/12/05 16:21:58;;;;;;;106.65;69.28;;;;;;;;;;5012687;28;20496;-86
2021/12/05 16:24:26;;;;;;;79.97;51.45;;;;;;;;;;5014007;28;20030;-87
2021/12/05 16:26:52;;;;;;;69.45;47.38;;;;;;;;;;5015241;28;20022;-84
2021/12/05 16:29:19;;;;;;;62.08;43.08;;;;;;;;;;5016264;28;20033;-85
2021/12/05 16:31:45;;;;;;;63.75;44.47;;;;;;;;;;5017428;28;20030;-84
2021/12/05 16:34:12;;;;;;;81.80;52.67;;;;;;;;;;5017515;28;20104;-87
2021/12/05 16:36:47;;;;;;;76.47;51.45;;;;;;;;;;5016172;28;20419;-85
2021/12/05 16:39:18;;;;;;;70.13;48.13;;;;;;;;;;5015683;28;20077;-89
2021/12/05 16:41:46;;;;;;;195.73;123.45;;;;;;;;;;5016065;28;20105;-87
2021/12/05 16:44:26;;;;;;;213.55;127.55;;;;;;;;;;5016974;28;20030;-88
2021/12/05 16:46:55;;;;;;;226.15;151.18;;;;;;;;;;5017025;28;20037;-84
2021/12/05 16:49:23;;;;;;;231.55;151.48;;;;;;;;;;5017072;28;20026;-89
2021/12/05 16:51:56;;;;;;;305.08;198.13;;;;;;;;;;5016892;28;20045;-91
2021/12/05 16:54:34;;;;;;;189.10;123.10;;;;;;;;;;5022102;28;20037;-80
2021/12/05 16:57:13;;;;;;;216.85;142.85;;;;;;;;;;5022003;28;20025;-92
2021/12/05 16:59:43;;;;;;;197.18;134.10;;;;;;;;;;5017098;28;20034;-82
2021/12/05 17:02:17;;;;;;;226.77;163.07;;;;;;;;;;5017084;28;20033;-89
2021/12/05 17:05:00;;;;;;;227.77;161.73;;;;;;;;;;5016604;28;20068;-88
2021/12/05 17:07:47;;;;;;;218.35;153.18;;;;;;;;;;5016458;28;20026;-81
2021/12/05 17:10:32;;;;;;;130.18;90.13;;;;;;;;;;5016631;28;20057;-81
2021/12/05 17:13:17;;;;;;;63.17;41.92;;;;;;;;;;5016297;28;20037;-83
2021/12/05 17:15:45;;;;;;;105.20;71.88;;;;;;;;;;5015211;28;20362;-85
2021/12/05 17:18:16;;;;;;;178.02;127.93;;;;;;;;;;5015147;28;20030;-88
2021/12/05 17:20:47;;;;;;;158.07;112.53;;;;;;;;;;5016364;28;20449;-87
2021/12/05 17:23:18;;;;;;;128.00;95.93;;;;;;;;;;5014974;28;20037;-82
2021/12/05 17:25:46;;;;;;;262.27;187.48;;;;;;;;;;5015218;28;20033;-84
2021/12/05 17:28:14;;;;;;;219.57;149.68;;;;;;;;;;5016284;28;20034;-88
2021/12/05 17:30:50;;;;;;;215.88;148.23;;;;;;;;;;5016261;28;20033;-85
2021/12/05 17:33:26;;;;;;;183.95;124.03;;;;;;;;;;5016202;28;20041;-86
2021/12/05 17:35:52;;;;;;;168.90;113.68;;;;;;;;;;5016095;28;20036;-87
2021/12/05 17:38:30;;;;;;;168.25;111.43;;;;;;;;;;5013959;28;20124;-82
2021/12/05 17:40:56;;;;;;;150.90;98.68;;;;;;;;;;5014701;28;20037;-90
2021/12/05 17:43:22;;;;;;;131.23;89.15;;;;;;;;;;5016093;28;20026;-93
2021/12/05 17:45:48;;;;;;;105.10;66.50;;;;;;;;;;5016024;28;20464;-86
2021/12/05 17:48:14;;;;;;;114.72;73.18;;;;;;;;;;5015925;28;20025;-85
2021/12/05 17:50:41;;;;;;;140.63;92.65;;;;;;;;;;5015898;28;20539;-90
2021/12/05 17:53:07;;;;;;;154.75;104.13;;;;;;;;;;5015680;28;20030;-87
2021/12/05 17:55:41;;;;;;;121.75;82.15;;;;;;;;;;5015899;28;20022;-85
2021/12/05 17:58:20;;;;;;;121.47;80.50;;;;;;;;;;5015812;28;20030;-86
2021/12/05 18:02:35;;;;;;;164.23;111.82;;;;;;;;;;5014304;28;20563;-88
2021/12/05 18:03:35;;;;;;;145.27;99.63;;;;;;;;;;5015713;28;20135;-92
2021/12/05 18:06:01;;;;;;;110.40;78.18;;;;;;;;;;5015693;28;20030;-84
2021/12/05 18:08:27;;;;;;;74.47;52.35;;;;;;;;;;5014388;28;20026;-84
2021/12/05 18:10:57;;;;;;;74.25;49.72;;;;;;;;;;5015605;28;20037;-86
2021/12/05 18:13:25;;;;;;;70.60;44.10;;;;;;;;;;5015395;28;20042;-82
2021/12/05 18:16:03;;;;;;;78.47;54.58;;;;;;;;;;5014223;28;20030;-89
2021/12/05 18:18:30;;;;;;;119.47;82.97;;;;;;;;;;5014157;28;20033;-85
2021/12/05 18:20:56;;;;;;;109.88;80.82;;;;;;;;;;5015205;28;20068;-87
2021/12/05 18:23:22;;;;;;;108.47;77.15;;;;;;;;;;5015310;28;20472;-86
2021/12/05 18:25:49;;;;;;;109.28;77.75;;;;;;;;;;5015309;28;20022;-87
2021/12/05 18:28:15;;;;;;;165.35;115.60;;;;;;;;;;5015028;28;20106;-85
2021/12/05 18:30:41;;;;;;;186.85;129.15;;;;;;;;;;5015122;28;20384;-86
2021/12/05 18:33:08;;;;;;;198.23;136.52;;;;;;;;;;5015636;28;20468;-90
2021/12/05 18:35:35;;;;;;;208.50;144.15;;;;;;;;;;5022427;28;20053;-81
2021/12/05 18:38:04;;;;;;;190.77;137.23;;;;;;;;;;5018261;28;20056;-83
2021/12/05 18:40:31;;;;;;;177.38;124.75;;;;;;;;;;5014222;28;20026;-87
2021/12/05 18:42:58;;;;;;;222.25;162.15;;;;;;;;;;5031160;28;20487;-84
2021/12/05 18:45:28;;;;;;;262.15;189.63;;;;;;;;;;5015146;28;20050;-87
2021/12/05 18:47:54;;;;;;;268.17;195.50;;;;;;;;;;5021120;28;20025;-86
2021/12/05 18:50:20;;;;;;;233.98;167.88;;;;;;;;;;5033288;28;20025;-84
2021/12/05 18:52:46;;;;;;;192.65;131.25;;;;;;;;;;5034113;28;20091;-84
2021/12/05 18:55:17;;;;;;;166.20;117.50;;;;;;;;;;5034376;28;20480;-85
2021/12/05 18:57:44;;;;;;;123.93;88.68;;;;;;;;;;5033493;28;20060;-81
2021/12/05 19:00:19;;;;;;;130.20;91.40;;;;;;;;;;5033875;28;20464;-82
2021/12/05 19:05:45;;;;;;;;;;;;;;;;;;5034049;28;20072;-83
2021/12/05 19:13:23;;;;;;;95.30;68.57;;;;;;;;;;5014127;28;20053;-89
2021/12/05 19:15:49;;;;;;;76.15;57.38;;;;;;;;;;5014446;28;20018;-87
2021/12/05 19:18:16;;;;;;;68.50;46.97;;;;;;;;;;5014244;28;20030;-88
2021/12/05 19:20:43;;;;;;;67.18;46.33;;;;;;;;;;5014610;28;20447;-81
2021/12/05 19:23:10;;;;;;;98.55;65.95;;;;;;;;;;5019355;28;20018;-88
2021/12/05 19:25:37;;;;;;;67.55;44.97;;;;;;;;;;5032571;28;20032;-86
2021/12/05 19:28:04;;;;;;;126.82;83.15;;;;;;;;;;5033004;28;20026;-81
2021/12/05 19:30:38;;;;;;;90.82;60.90;;;;;;;;;;5033592;28;20032;-87
2021/12/05 19:33:06;;;;;;;99.90;69.77;;;;;;;;;;5032535;28;20120;-85
2021/12/05 19:35:32;;;;;;;111.72;73.75;;;;;;;;;;5033502;28;20033;-81
2021/12/05 19:38:00;;;;;;;94.05;62.75;;;;;;;;;;5031407;28;20021;-81
2021/12/05 19:40:26;;;;;;;114.80;77.65;;;;;;;;;;5032937;28;20404;-86
2021/12/05 19:42:53;;;;;;;126.82;85.55;;;;;;;;;;5033142;28;20029;-88
2021/12/05 19:45:20;;;;;;;115.43;77.85;;;;;;;;;;5025043;28;20491;-85
2021/12/05 19:47:48;;;;;;;157.38;108.07;;;;;;;;;;5031951;28;20033;-90
2021/12/05 19:50:16;;;;;;;165.88;114.40;;;;;;;;;;5033384;28;20025;-83
2021/12/05 19:52:42;;;;;;;157.88;115.70;;;;;;;;;;5032511;28;20451;-83
2021/12/05 19:55:09;;;;;;;169.32;121.30;;;;;;;;;;5016203;28;20039;-83
2021/12/05 19:57:35;;;;;;;145.73;105.07;;;;;;;;;;5032621;28;20021;-82
2021/12/05 20:00:03;;;;;;;131.52;99.13;;;;;;;;;;5033747;28;20092;-83
2021/12/05 20:02:29;;;;;;;82.07;60.65;;;;;;;;;;5037606;28;20076;-89
2021/12/05 20:04:55;;;;;;;71.03;53.40;;;;;;;;;;5037281;28;20387;-88
2021/12/05 20:07:22;;;;;;;62.25;46.95;;;;;;;;;;5039684;28;20104;-85
2021/12/05 20:09:48;;;;;;;53.35;40.40;;;;;;;;;;5038542;28;20111;-84
2021/12/05 20:12:15;;;;;;;53.47;37.70;;;;;;;;;;5039446;28;20041;-83
2021/12/05 20:14:41;;;;;;;47.53;37.67;;;;;;;;;;5040383;28;20030;-88
2021/12/05 20:17:07;;;;;;;44.33;34.70;;;;;;;;;;5045640;28;20029;-82